Time;durP1;ratioP1;P1;durP2;ratioP2;P2;SDS_P1;SDS_P2;PMS_P1;PMS_P2;Temp;Humidity;BMP_temperature;BMP_pressure;BME280_temperature;BME280_humidity;BME280_pressure;Samples;Min_cycle;Max_cycle;Signal;HPM_P1;HPM_P2
2023/12/02 00:01:21;;;;;;;8.60;4.90;;;;;;;;;;4980788;28;20333;-59
2023/12/02 00:04:08;;;;;;;6.60;4.20;;;;;;;;;;4980051;28;20062;-59
2023/12/02 00:07:02;;;;;;;7.70;4.37;;;;;;;;;;4980029;28;20442;-60
2023/12/02 00:09:57;;;;;;;12.27;4.80;;;;;;;;;;4982792;28;20054;-52
2023/12/02 00:12:44;;;;;;;5.15;3.42;;;;;;;;;;4981399;28;20113;-53
2023/12/02 00:15:38;;;;;;;8.00;4.50;;;;;;;;;;4979559;28;20487;-55
2023/12/02 00:18:12;;;;;;;;;;;;;;;;;;4993208;28;20058;-53
2023/12/02 00:20:53;;;;;;;6.87;4.13;;;;;;;;;;5002218;28;20016;-54
2023/12/02 00:23:20;;;;;;;7.00;4.43;;;;;;;;;;5001605;28;20172;-53
2023/12/02 00:25:54;;;;;;;8.53;4.63;;;;;;;;;;5004538;28;20519;-60
2023/12/02 00:28:21;;;;;;;;;;;;;;;;;;5002822;28;20054;-60
2023/12/02 00:30:48;;;;;;;8.33;4.80;;;;;;;;;;4997994;28;19922;-60
2023/12/02 00:33:22;;;;;;;7.73;4.60;;;;;;;;;;5002043;28;20057;-60
2023/12/02 00:35:49;;;;;;;;;;;;;;;;;;5003042;28;20057;-48
2023/12/02 00:38:23;;;;;;;7.00;4.23;;;;;;;;;;4998797;28;19928;-55
2023/12/02 00:40:50;;;;;;;7.45;4.15;;;;;;;;;;4998808;28;20575;-57
2023/12/02 00:43:24;;;;;;;8.23;4.20;;;;;;;;;;5000840;28;20057;-52
2023/12/02 00:45:51;;;;;;;;;;;;;;;;;;4990476;28;20050;-57
2023/12/02 00:48:18;;;;;;;6.93;4.10;;;;;;;;;;4995782;28;19936;-53
2023/12/02 00:50:52;;;;;;;6.67;4.23;;;;;;;;;;5000334;28;20053;-57
2023/12/02 00:53:20;;;;;;;7.70;4.63;;;;;;;;;;5000201;28;20050;-61
2023/12/02 00:55:54;;;;;;;7.63;4.27;;;;;;;;;;4998974;28;20069;-60
2023/12/02 00:58:21;;;;;;;9.20;4.90;;;;;;;;;;4996514;28;20485;-60
2023/12/02 01:01:02;;;;;;;10.60;4.77;;;;;;;;;;4995126;28;20605;-60
2023/12/02 01:03:35;;;;;;;6.40;4.20;;;;;;;;;;4996463;28;20075;-53
2023/12/02 01:06:02;;;;;;;;;;;;;;;;;;5000579;28;20053;-47
2023/12/02 01:08:36;;;;;;;9.10;4.47;;;;;;;;;;4997939;28;19948;-46
2023/12/02 01:11:03;;;;;;;;;;;;;;;;;;4999852;28;20057;-49
2023/12/02 01:13:30;;;;;;;6.23;3.97;;;;;;;;;;5001215;28;19928;-46
2023/12/02 01:16:04;;;;;;;8.50;4.70;;;;;;;;;;5000110;28;20061;-47
2023/12/02 01:18:38;;;;;;;9.07;4.30;;;;;;;;;;4998679;28;20057;-48
2023/12/02 01:21:13;;;;;;;7.13;4.50;;;;;;;;;;4999899;28;20050;-49
2023/12/02 01:23:48;;;;;;;8.47;4.23;;;;;;;;;;4997926;28;20058;-56
2023/12/02 01:26:23;;;;;;;6.23;4.17;;;;;;;;;;5002591;28;20444;-56
2023/12/02 01:28:50;;;;;;;6.63;4.70;;;;;;;;;;4998500;28;20054;-55
2023/12/02 01:31:17;;;;;;;;;;;;;;;;;;5014692;28;20528;-54
2023/12/02 01:33:51;;;;;;;12.47;4.50;;;;;;;;;;5002622;28;19975;-60
2023/12/02 01:36:18;;;;;;;;;;;;;;;;;;5001206;28;20615;-67
2023/12/02 01:38:52;;;;;;;6.63;3.90;;;;;;;;;;4996647;28;19967;-67
2023/12/02 01:41:19;;;;;;;;;;;;;;;;;;5002016;28;20052;-67
2023/12/02 01:43:46;;;;;;;7.30;3.73;;;;;;;;;;5000029;28;20442;-67
2023/12/02 01:46:20;;;;;;;7.53;4.17;;;;;;;;;;4998470;28;20567;-67
2023/12/02 01:48:48;;;;;;;7.80;4.47;;;;;;;;;;4998419;28;20108;-68
2023/12/02 01:51:21;;;;;;;6.00;4.13;;;;;;;;;;5000772;28;20105;-60
2023/12/02 01:53:48;;;;;;;7.70;4.40;;;;;;;;;;5000168;28;20173;-61
2023/12/02 01:56:16;;;;;;;8.20;4.50;;;;;;;;;;4998660;28;20064;-59
2023/12/02 01:58:51;;;;;;;8.67;4.43;;;;;;;;;;5000282;28;20049;-60
2023/12/02 02:01:18;;;;;;;;;;;;;;;;;;4996986;28;20061;-60
2023/12/02 02:03:48;;;;;;;7.70;4.10;;;;;;;;;;4999689;28;20454;-56
2023/12/02 02:06:21;;;;;;;9.17;4.50;;;;;;;;;;5000681;28;20058;-56
2023/12/02 02:08:48;;;;;;;;;;;;;;;;;;5002678;28;20054;-58
2023/12/02 02:11:22;;;;;;;7.50;3.77;;;;;;;;;;4999129;28;19932;-58
2023/12/02 02:13:49;;;;;;;7.03;4.27;;;;;;;;;;4983400;28;20053;-58
2023/12/02 02:16:17;;;;;;;7.75;4.10;;;;;;;;;;4996777;28;20517;-57
2023/12/02 02:18:57;;;;;;;7.27;4.23;;;;;;;;;;5000132;28;20344;-49
2023/12/02 02:21:24;;;;;;;9.30;4.43;;;;;;;;;;4996146;28;20068;-50
2023/12/02 02:23:58;;;;;;;6.53;4.30;;;;;;;;;;5008982;28;20054;-48
2023/12/02 02:26:25;;;;;;;7.60;4.20;;;;;;;;;;5001359;28;20046;-50
2023/12/02 02:28:52;;;;;;;;;;;;;;;;;;4998829;28;20052;-59
2023/12/02 02:31:26;;;;;;;9.67;5.00;;;;;;;;;;4996763;28;19954;-60
2023/12/02 02:33:53;;;;;;;7.95;4.20;;;;;;;;;;4997899;28;20501;-61
2023/12/02 02:36:20;;;;;;;;;;;;;;;;;;5000981;28;20501;-60
2023/12/02 02:38:54;;;;;;;9.13;4.50;;;;;;;;;;4997347;28;19925;-60
2023/12/02 02:41:21;;;;;;;;;;;;;;;;;;5002580;28;20133;-60
2023/12/02 02:43:55;;;;;;;9.37;4.73;;;;;;;;;;4998665;28;19936;-59
2023/12/02 02:46:22;;;;;;;8.07;4.85;;;;;;;;;;4995975;28;20054;-60
2023/12/02 02:48:49;;;;;;;8.88;4.97;;;;;;;;;;4998542;28;20053;-48
2023/12/02 02:51:23;;;;;;;10.30;4.97;;;;;;;;;;4998306;28;20526;-46
2023/12/02 02:53:50;;;;;;;8.65;4.95;;;;;;;;;;4999594;28;20108;-49
2023/12/02 02:56:25;;;;;;;7.97;4.67;;;;;;;;;;4998402;28;20144;-47
2023/12/02 02:58:52;;;;;;;7.33;4.07;;;;;;;;;;4995108;28;20049;-56
2023/12/02 03:01:19;;;;;;;7.88;4.32;;;;;;;;;;4995891;28;20057;-60
2023/12/02 03:03:53;;;;;;;8.23;4.67;;;;;;;;;;4995546;28;20062;-60
2023/12/02 03:06:20;;;;;;;;;;;;;;;;;;4996449;28;20072;-59
2023/12/02 03:08:54;;;;;;;8.47;4.90;;;;;;;;;;4996389;28;19930;-59
2023/12/02 03:11:21;;;;;;;;;;;;;;;;;;4999137;28;20574;-60
2023/12/02 03:13:48;;;;;;;6.07;3.80;;;;;;;;;;4997238;28;19921;-59
2023/12/02 03:16:22;;;;;;;7.20;4.33;;;;;;;;;;4989937;28;20054;-67
2023/12/02 03:18:56;;;;;;;9.80;4.63;;;;;;;;;;4996728;28;20049;-68
2023/12/02 03:21:30;;;;;;;9.57;4.50;;;;;;;;;;4998706;28;20300;-68
2023/12/02 03:23:57;;;;;;;;;;;;;;;;;;5000697;28;20424;-67
2023/12/02 03:26:25;;;;;;;7.73;4.40;;;;;;;;;;5000009;28;19933;-56
2023/12/02 03:28:58;;;;;;;8.13;4.37;;;;;;;;;;4999365;28;20053;-59
2023/12/02 03:31:25;;;;;;;6.90;4.20;;;;;;;;;;5001340;28;20046;-58
2023/12/02 03:33:59;;;;;;;8.93;4.50;;;;;;;;;;4996666;28;20112;-58
2023/12/02 03:36:26;;;;;;;8.27;4.77;;;;;;;;;;5000001;28;20746;-58
2023/12/02 03:38:54;;;;;;;;;;;;;;;;;;4998301;28;20053;-58
2023/12/02 03:41:28;;;;;;;6.70;4.13;;;;;;;;;;5002054;28;19929;-58
2023/12/02 03:43:55;;;;;;;9.40;5.13;;;;;;;;;;5000962;28;20093;-67
2023/12/02 03:46:29;;;;;;;8.40;4.90;;;;;;;;;;4998270;28;20050;-68
2023/12/02 03:48:57;;;;;;;8.55;4.60;;;;;;;;;;5001064;28;20057;-67
2023/12/02 03:51:24;;;;;;;8.63;4.53;;;;;;;;;;5003924;28;20053;-68
2023/12/02 03:53:58;;;;;;;8.80;4.70;;;;;;;;;;5003123;28;20512;-54
2023/12/02 03:56:25;;;;;;;8.03;4.50;;;;;;;;;;5001485;28;20053;-60
2023/12/02 03:58:59;;;;;;;7.80;4.67;;;;;;;;;;5000124;28;20493;-60
2023/12/02 04:01:26;;;;;;;8.37;4.20;;;;;;;;;;4999986;28;20949;-60
2023/12/02 04:03:54;;;;;;;11.73;4.72;;;;;;;;;;5002168;28;20058;-60
2023/12/02 04:06:28;;;;;;;7.50;4.50;;;;;;;;;;5003834;28;20061;-60
2023/12/02 04:08:55;;;;;;;;;;;;;;;;;;5001907;28;20054;-59
2023/12/02 04:11:29;;;;;;;8.43;4.17;;;;;;;;;;5001329;28;19929;-60
2023/12/02 04:13:56;;;;;;;8.20;4.07;;;;;;;;;;4996598;28;20049;-58
2023/12/02 04:16:23;;;;;;;8.55;4.10;;;;;;;;;;4999642;28;20058;-58
2023/12/02 04:19:04;;;;;;;6.83;4.20;;;;;;;;;;4998819;28;20065;-59
2023/12/02 04:21:41;;;;;;;6.17;4.20;;;;;;;;;;4996324;28;20517;-57
2023/12/02 04:24:15;;;;;;;6.30;4.10;;;;;;;;;;4999085;28;20066;-60
2023/12/02 04:26:42;;;;;;;;;;;;;;;;;;5002392;28;20682;-68
2023/12/02 04:29:09;;;;;;;7.07;4.10;;;;;;;;;;5000799;28;19921;-68
2023/12/02 04:31:43;;;;;;;8.50;3.80;;;;;;;;;;5001308;28;20512;-68
2023/12/02 04:34:10;;;;;;;6.68;4.10;;;;;;;;;;5001402;28;20054;-67
2023/12/02 04:36:38;;;;;;;7.13;4.00;;;;;;;;;;5000382;28;20054;-68
2023/12/02 04:39:12;;;;;;;6.87;4.27;;;;;;;;;;4999651;28;21008;-67
2023/12/02 04:41:39;;;;;;;5.77;3.80;;;;;;;;;;5000009;28;20050;-67
2023/12/02 04:44:13;;;;;;;6.63;4.07;;;;;;;;;;4996723;28;20116;-68
2023/12/02 04:46:44;;;;;;;6.10;4.10;;;;;;;;;;5000916;28;20245;-67
2023/12/02 04:49:15;;;;;;;7.67;4.30;;;;;;;;;;4999442;28;20046;-67
2023/12/02 04:51:48;;;;;;;5.15;3.13;;;;;;;;;;4999517;28;20423;-59
2023/12/02 04:54:15;;;;;;;6.30;3.65;;;;;;;;;;5001048;28;20112;-67
2023/12/02 04:56:49;;;;;;;5.73;3.90;;;;;;;;;;4995102;28;20064;-67
2023/12/02 04:59:16;;;;;;;;;;;;;;;;;;5000637;28;20066;-68
2023/12/02 05:01:44;;;;;;;7.93;3.87;;;;;;;;;;5000497;28;19929;-67
2023/12/02 05:04:17;;;;;;;8.17;3.97;;;;;;;;;;4997931;28;20143;-67
2023/12/02 05:06:44;;;;;;;8.90;4.60;;;;;;;;;;5000943;28;20171;-68
2023/12/02 05:09:18;;;;;;;7.03;4.03;;;;;;;;;;4999213;28;20057;-61
2023/12/02 05:11:46;;;;;;;7.93;4.27;;;;;;;;;;4998115;28;20065;-60
2023/12/02 05:14:13;;;;;;;7.65;4.45;;;;;;;;;;4997830;28;20057;-60
2023/12/02 05:16:54;;;;;;;10.83;4.33;;;;;;;;;;4997187;28;20096;-61
2023/12/02 05:19:28;;;;;;;7.73;4.20;;;;;;;;;;4997693;28;20140;-67
2023/12/02 05:22:01;;;;;;;8.60;4.63;;;;;;;;;;4994519;28;20054;-55
2023/12/02 05:24:28;;;;;;;;;;;;;;;;;;4999223;28;20054;-56
2023/12/02 05:27:02;;;;;;;7.83;4.07;;;;;;;;;;4994715;28;19927;-54
2023/12/02 05:29:36;;;;;;;8.53;4.60;;;;;;;;;;4998491;28;20057;-55
2023/12/02 05:32:03;;;;;;;9.52;5.45;;;;;;;;;;4995287;28;20073;-55
2023/12/02 05:34:37;;;;;;;10.30;5.17;;;;;;;;;;4995253;28;20287;-54
2023/12/02 05:37:05;;;;;;;;;;;;;;;;;;4998848;28;20619;-54
2023/12/02 05:39:32;;;;;;;9.97;4.80;;;;;;;;;;4997254;28;19925;-60
2023/12/02 05:42:05;;;;;;;8.17;4.60;;;;;;;;;;4999156;28;20056;-60
2023/12/02 05:44:32;;;;;;;;;;;;;;;;;;4997968;28;20702;-60
2023/12/02 05:47:06;;;;;;;10.47;5.07;;;;;;;;;;4994513;28;19964;-60
2023/12/02 05:49:33;;;;;;;12.00;5.25;;;;;;;;;;4997846;28;20120;-65
2023/12/02 05:52:01;;;;;;;;;;;;;;;;;;4996272;28;20077;-56
2023/12/02 05:54:34;;;;;;;9.63;4.90;;;;;;;;;;4993678;28;19983;-54
2023/12/02 05:57:02;;;;;;;8.23;4.77;;;;;;;;;;4998032;28;20066;-55
2023/12/02 05:59:36;;;;;;;7.73;4.70;;;;;;;;;;4998169;28;20061;-56
2023/12/02 06:02:03;;;;;;;7.57;4.00;;;;;;;;;;4994201;28;20151;-55
2023/12/02 06:04:30;;;;;;;;;;;;;;;;;;4997141;28;20068;-55
2023/12/02 06:07:04;;;;;;;6.63;4.20;;;;;;;;;;4997915;28;19925;-60
2023/12/02 06:09:31;;;;;;;7.28;4.53;;;;;;;;;;4996940;28;20320;-60
2023/12/02 06:12:05;;;;;;;9.13;4.70;;;;;;;;;;4997572;28;20054;-61
2023/12/02 06:14:32;;;;;;;;;;;;;;;;;;4999441;28;20054;-61
2023/12/02 06:17:01;;;;;;;7.43;4.30;;;;;;;;;;4995821;28;19930;-50
2023/12/02 06:19:42;;;;;;;8.00;4.70;;;;;;;;;;4997828;28;20069;-61
2023/12/02 06:22:09;;;;;;;6.83;4.10;;;;;;;;;;4996759;28;20058;-61
2023/12/02 06:24:43;;;;;;;7.23;3.90;;;;;;;;;;4996249;28;20476;-60
2023/12/02 06:27:10;;;;;;;8.18;5.40;;;;;;;;;;4993055;28;20057;-61
2023/12/02 06:29:37;;;;;;;;;;;;;;;;;;4998824;28;20050;-61
2023/12/02 06:32:11;;;;;;;8.53;4.33;;;;;;;;;;4994679;28;19929;-61
2023/12/02 06:34:38;;;;;;;9.00;4.43;;;;;;;;;;4996353;28;20072;-68
2023/12/02 06:37:05;;;;;;;10.60;5.10;;;;;;;;;;4997318;28;20104;-67
2023/12/02 06:39:39;;;;;;;12.17;5.00;;;;;;;;;;4997069;28;20444;-68
2023/12/02 06:42:07;;;;;;;7.33;4.43;;;;;;;;;;4993644;28;20059;-67
2023/12/02 06:44:34;;;;;;;;;;;;;;;;;;4996960;28;20054;-60
2023/12/02 06:47:10;;;;;;;6.83;4.23;;;;;;;;;;4989371;28;19932;-60
2023/12/02 06:49:37;;;;;;;;;;;;;;;;;;4993758;28;20112;-58
2023/12/02 06:52:10;;;;;;;7.63;4.57;;;;;;;;;;4998866;28;19936;-59
2023/12/02 06:54:37;;;;;;;;;;;;;;;;;;4997290;28;20053;-59
2023/12/02 06:57:05;;;;;;;7.07;4.43;;;;;;;;;;5000070;28;20042;-59
2023/12/02 06:59:39;;;;;;;7.77;4.70;;;;;;;;;;5000018;28;20133;-58
2023/12/02 07:02:06;;;;;;;;;;;;;;;;;;4997040;28;20038;-60
2023/12/02 07:04:40;;;;;;;9.67;4.87;;;;;;;;;;4996432;28;19925;-68
2023/12/02 07:07:08;;;;;;;7.77;4.67;;;;;;;;;;4999800;28;20050;-68
2023/12/02 07:09:37;;;;;;;9.10;4.13;;;;;;;;;;4999054;28;20531;-68
2023/12/02 07:12:10;;;;;;;7.13;4.40;;;;;;;;;;4997950;28;20054;-67
2023/12/02 07:14:37;;;;;;;11.53;4.90;;;;;;;;;;4996902;28;20163;-60
2023/12/02 07:17:18;;;;;;;9.37;5.17;;;;;;;;;;4993175;28;20112;-55
2023/12/02 07:19:45;;;;;;;7.10;3.97;;;;;;;;;;4996861;28;20050;-58
2023/12/02 07:22:19;;;;;;;8.43;5.27;;;;;;;;;;4990485;28;20524;-57
2023/12/02 07:24:46;;;;;;;8.43;5.00;;;;;;;;;;4994205;28;20058;-56
2023/12/02 07:27:14;;;;;;;8.37;4.60;;;;;;;;;;4993702;28;20054;-57
2023/12/02 07:29:47;;;;;;;10.60;4.83;;;;;;;;;;4997084;28;20054;-57
2023/12/02 07:32:17;;;;;;;7.13;4.30;;;;;;;;;;4998632;28;20050;-60
2023/12/02 07:34:45;;;;;;;7.68;4.75;;;;;;;;;;4997629;28;20128;-60
2023/12/02 07:37:18;;;;;;;10.17;4.30;;;;;;;;;;5000547;28;20056;-60
2023/12/02 07:39:45;;;;;;;7.28;4.30;;;;;;;;;;5001257;28;20061;-60
2023/12/02 07:42:19;;;;;;;10.13;4.80;;;;;;;;;;4997327;28;20212;-61
2023/12/02 07:44:46;;;;;;;11.05;6.43;;;;;;;;;;4999420;28;20493;-58
2023/12/02 07:47:14;;;;;;;8.60;4.53;;;;;;;;;;4995701;28;20196;-54
2023/12/02 07:49:47;;;;;;;8.63;4.80;;;;;;;;;;4995388;28;20065;-58
2023/12/02 07:52:15;;;;;;;8.80;5.20;;;;;;;;;;4989407;28;20197;-57
2023/12/02 07:54:48;;;;;;;8.50;4.67;;;;;;;;;;5007208;28;20077;-57
2023/12/02 07:57:15;;;;;;;;;;;;;;;;;;4997598;28;20049;-56
2023/12/02 07:59:42;;;;;;;7.60;4.50;;;;;;;;;;4997428;28;19921;-61
2023/12/02 08:02:16;;;;;;;7.80;4.53;;;;;;;;;;4995553;28;20092;-61
2023/12/02 08:04:44;;;;;;;6.90;4.20;;;;;;;;;;4994752;28;20061;-60
2023/12/02 08:07:37;;;;;;;10.33;5.33;;;;;;;;;;4998660;28;20050;-60
2023/12/02 08:10:06;;;;;;;8.23;4.78;;;;;;;;;;4996272;28;20520;-68
2023/12/02 08:12:40;;;;;;;8.90;4.70;;;;;;;;;;4999947;28;20103;-48
2023/12/02 08:15:07;;;;;;;;;;;;;;;;;;5001159;28;20650;-54
2023/12/02 08:17:35;;;;;;;8.77;5.00;;;;;;;;;;4999545;28;20419;-53
2023/12/02 08:20:16;;;;;;;8.57;5.20;;;;;;;;;;5000577;28;20054;-55
2023/12/02 08:22:43;;;;;;;8.13;4.50;;;;;;;;;;5001884;28;20050;-54
2023/12/02 08:25:18;;;;;;;7.47;4.20;;;;;;;;;;4994647;28;20606;-56
2023/12/02 08:27:45;;;;;;;9.43;5.00;;;;;;;;;;5000549;28;20134;-56
2023/12/02 08:30:13;;;;;;;9.37;4.83;;;;;;;;;;5001733;28;20055;-49
2023/12/02 08:32:47;;;;;;;8.67;5.00;;;;;;;;;;4999844;28;20085;-50
2023/12/02 08:35:14;;;;;;;9.00;4.87;;;;;;;;;;4999521;28;20647;-49
2023/12/02 08:37:42;;;;;;;;;;;;;;;;;;5003299;28;20146;-48
2023/12/02 08:40:15;;;;;;;10.37;5.20;;;;;;;;;;5002267;28;19926;-59
2023/12/02 08:42:42;;;;;;;6.75;4.63;;;;;;;;;;4997789;28;20045;-60
2023/12/02 08:45:16;;;;;;;7.63;4.10;;;;;;;;;;5002366;28;20054;-60
2023/12/02 08:47:43;;;;;;;8.63;4.60;;;;;;;;;;5000278;28;20456;-60
2023/12/02 08:50:11;;;;;;;9.23;4.50;;;;;;;;;;5000296;28;20097;-61
2023/12/02 08:52:44;;;;;;;8.50;5.23;;;;;;;;;;4997821;28;20060;-59
2023/12/02 08:55:11;;;;;;;;;;;;;;;;;;4998807;28;20054;-60
2023/12/02 08:57:41;;;;;;;7.87;4.53;;;;;;;;;;5002143;28;19929;-60
2023/12/02 09:00:15;;;;;;;9.97;5.33;;;;;;;;;;5002240;28;20500;-60
2023/12/02 09:02:42;;;;;;;;;;;;;;;;;;4999580;28;20737;-60
2023/12/02 09:05:16;;;;;;;8.13;4.53;;;;;;;;;;4999250;28;19925;-60
2023/12/02 09:07:44;;;;;;;13.07;5.25;;;;;;;;;;5000037;28;20068;-55
2023/12/02 09:10:11;;;;;;;7.53;4.67;;;;;;;;;;4999501;28;20076;-68
2023/12/02 09:12:45;;;;;;;8.52;4.85;;;;;;;;;;5000719;28;20100;-68
2023/12/02 09:15:16;;;;;;;10.60;5.17;;;;;;;;;;4996262;28;20504;-68
2023/12/02 09:18:00;;;;;;;8.67;4.67;;;;;;;;;;4996187;28;20061;-68
2023/12/02 09:20:46;;;;;;;14.80;4.97;;;;;;;;;;4999398;28;20487;-68
2023/12/02 09:23:20;;;;;;;8.43;4.60;;;;;;;;;;4999500;28;20061;-68
2023/12/02 09:25:49;;;;;;;7.27;4.47;;;;;;;;;;5001315;28;20061;-61
2023/12/02 09:28:27;;;;;;;9.30;4.88;;;;;;;;;;4998920;28;20077;-60
2023/12/02 09:30:59;;;;;;;10.13;4.90;;;;;;;;;;4998130;28;20871;-61
2023/12/02 09:33:37;;;;;;;8.07;4.53;;;;;;;;;;5002179;28;20068;-61
2023/12/02 09:36:05;;;;;;;8.77;4.80;;;;;;;;;;5002272;28;20065;-60
2023/12/02 09:38:39;;;;;;;9.70;4.87;;;;;;;;;;4999219;28;20054;-55
2023/12/02 09:41:21;;;;;;;8.27;4.80;;;;;;;;;;4999388;28;20559;-55
2023/12/02 09:44:03;;;;;;;10.63;5.05;;;;;;;;;;4996700;28;20108;-55
2023/12/02 09:47:06;;;;;;;8.27;4.57;;;;;;;;;;5000634;28;20104;-56
2023/12/02 09:50:12;;;;;;;9.82;5.18;;;;;;;;;;5002714;28;20191;-54
2023/12/02 09:53:16;;;;;;;32.42;17.27;;;;;;;;;;4996117;28;20046;-57
2023/12/02 09:56:08;;;;;;;10.45;5.18;;;;;;;;;;4999869;28;20053;-59
2023/12/02 09:59:09;;;;;;;8.98;5.00;;;;;;;;;;5000954;28;20171;-58
2023/12/02 10:02:34;;;;;;;10.70;4.53;;;;;;;;;;4998191;28;20060;-59
2023/12/02 10:05:34;;;;;;;9.48;4.90;;;;;;;;;;4998548;28;20062;-60
2023/12/02 10:08:36;;;;;;;8.57;4.85;;;;;;;;;;4995313;28;20345;-59
2023/12/02 10:11:47;;;;;;;9.35;4.60;;;;;;;;;;4999829;28;20054;-58
2023/12/02 10:14:34;;;;;;;8.82;4.82;;;;;;;;;;4996893;28;20058;-55
2023/12/02 10:17:29;;;;;;;8.27;4.22;;;;;;;;;;4999440;28;20065;-56
2023/12/02 10:20:29;;;;;;;9.32;5.10;;;;;;;;;;4999170;28;20417;-58
2023/12/02 10:23:19;;;;;;;8.98;5.05;;;;;;;;;;4995275;28;20115;-58
2023/12/02 10:26:18;;;;;;;8.48;4.75;;;;;;;;;;4998722;28;20049;-59
2023/12/02 10:29:17;;;;;;;9.00;5.07;;;;;;;;;;4997128;28;20394;-58
2023/12/02 10:32:23;;;;;;;9.57;5.22;;;;;;;;;;5002195;28;20058;-54
2023/12/02 10:35:21;;;;;;;9.75;4.97;;;;;;;;;;4999329;28;20056;-61
2023/12/02 10:38:32;;;;;;;9.35;4.72;;;;;;;;;;4999612;28;20054;-61
2023/12/02 10:41:39;;;;;;;;;;;;;;;;;;4992412;28;20046;-61
2023/12/02 10:44:29;;;;;;;9.38;4.93;;;;;;;;;;4989614;28;19921;-61
2023/12/02 10:47:22;;;;;;;11.85;5.80;;;;;;;;;;4994938;28;20394;-61
2023/12/02 10:50:17;;;;;;;10.57;6.15;;;;;;;;;;4991254;28;20302;-61
2023/12/02 10:53:04;;;;;;;8.23;4.25;;;;;;;;;;4997522;28;20404;-62
2023/12/02 10:56:05;;;;;;;11.77;4.88;;;;;;;;;;4995719;28;20073;-61
2023/12/02 10:58:49;;;;;;;9.57;5.07;;;;;;;;;;4994307;28;20504;-61
2023/12/02 11:01:50;;;;;;;11.30;5.32;;;;;;;;;;4993703;28;20050;-68
2023/12/02 11:04:42;;;;;;;9.85;5.25;;;;;;;;;;4998178;28;20499;-58
2023/12/02 11:07:35;;;;;;;15.73;5.75;;;;;;;;;;4996503;28;20505;-58
2023/12/02 11:10:28;;;;;;;13.45;6.45;;;;;;;;;;4990670;28;20575;-58
2023/12/02 11:13:23;;;;;;;12.73;5.63;;;;;;;;;;4995816;28;20085;-58
2023/12/02 11:16:28;;;;;;;12.43;6.25;;;;;;;;;;4995857;28;20062;-59
2023/12/02 11:19:34;;;;;;;12.00;5.82;;;;;;;;;;4995012;28;20690;-54
2023/12/02 11:22:45;;;;;;;10.63;5.90;;;;;;;;;;5000381;28;20057;-54
2023/12/02 11:25:47;;;;;;;11.52;6.38;;;;;;;;;;4993666;28;20041;-54
2023/12/02 11:28:40;;;;;;;15.38;6.80;;;;;;;;;;4995605;28;20104;-54
2023/12/02 11:31:56;;;;;;;12.35;6.38;;;;;;;;;;4998555;28;20049;-56
2023/12/02 11:34:43;;;;;;;;;;;;;;;;;;4997693;28;20062;-60
2023/12/02 11:37:59;;;;;;;14.77;6.50;;;;;;;;;;4994310;28;19975;-61
2023/12/02 11:41:03;;;;;;;11.10;5.90;;;;;;;;;;4994753;28;20210;-60
2023/12/02 11:43:58;;;;;;;10.50;6.05;;;;;;;;;;4998153;28;20159;-60
2023/12/02 11:46:57;;;;;;;11.15;5.78;;;;;;;;;;4998887;28;20128;-60
2023/12/02 11:49:54;;;;;;;12.45;6.50;;;;;;;;;;4999348;28;20718;-61
2023/12/02 11:53:07;;;;;;;11.75;5.97;;;;;;;;;;4999541;28;20056;-61
2023/12/02 11:56:14;;;;;;;10.90;5.57;;;;;;;;;;4997360;28;20088;-61
2023/12/02 11:59:19;;;;;;;10.82;5.68;;;;;;;;;;5000814;28;20061;-55
2023/12/02 12:02:24;;;;;;;9.40;5.55;;;;;;;;;;5001898;28;20073;-58
2023/12/02 12:05:21;;;;;;;12.52;6.03;;;;;;;;;;4999911;28;20053;-58
2023/12/02 12:08:10;;;;;;;11.07;5.97;;;;;;;;;;5000086;28;20061;-56
2023/12/02 12:11:05;;;;;;;10.27;5.72;;;;;;;;;;4999606;28;20058;-57
2023/12/02 12:13:53;;;;;;;10.07;4.70;;;;;;;;;;5002240;28;20046;-57
2023/12/02 12:16:49;;;;;;;10.90;5.97;;;;;;;;;;4998205;28;20492;-68
2023/12/02 12:19:50;;;;;;;10.52;6.30;;;;;;;;;;4999451;28;20049;-68
2023/12/02 12:22:42;;;;;;;10.35;5.72;;;;;;;;;;4997290;28;20463;-68
2023/12/02 12:25:29;;;;;;;11.75;6.47;;;;;;;;;;4997400;28;20082;-69
2023/12/02 12:28:23;;;;;;;14.90;6.78;;;;;;;;;;4998549;28;20049;-56
2023/12/02 12:31:10;;;;;;;12.65;6.43;;;;;;;;;;4998837;28;20151;-61
2023/12/02 12:34:11;;;;;;;11.40;6.50;;;;;;;;;;4997230;28;20307;-61
2023/12/02 12:36:58;;;;;;;15.32;7.10;;;;;;;;;;4995783;28;20061;-60
2023/12/02 12:39:53;;;;;;;11.35;6.10;;;;;;;;;;4997806;28;20054;-61
2023/12/02 12:42:47;;;;;;;10.70;5.18;;;;;;;;;;4992871;28;20124;-61
2023/12/02 12:45:40;;;;;;;11.80;5.75;;;;;;;;;;4998645;28;20073;-55
2023/12/02 12:48:27;;;;;;;14.73;6.35;;;;;;;;;;4993810;28;20468;-55
2023/12/02 12:51:22;;;;;;;12.50;6.32;;;;;;;;;;4996596;28;20493;-56
2023/12/02 12:54:12;;;;;;;8.98;5.00;;;;;;;;;;4999159;28;20058;-57
2023/12/02 12:57:17;;;;;;;12.18;6.07;;;;;;;;;;4995973;28;20514;-57
2023/12/02 13:00:06;;;;;;;10.40;6.32;;;;;;;;;;4994824;28;20062;-48
2023/12/02 13:02:58;;;;;;;10.60;6.13;;;;;;;;;;4997363;28;20054;-51
2023/12/02 13:05:48;;;;;;;11.32;6.53;;;;;;;;;;4995578;28;20054;-50
2023/12/02 13:08:49;;;;;;;13.55;7.03;;;;;;;;;;4992337;28;20061;-48
2023/12/02 13:11:59;;;;;;;12.70;6.90;;;;;;;;;;4997903;28;20057;-51
2023/12/02 13:15:03;;;;;;;12.25;6.38;;;;;;;;;;4983144;28;20045;-59
2023/12/02 13:17:57;;;;;;;13.55;6.68;;;;;;;;;;4997753;28;20265;-58
2023/12/02 13:20:50;;;;;;;13.73;7.63;;;;;;;;;;4991679;28;20057;-59
2023/12/02 13:23:45;;;;;;;16.38;8.50;;;;;;;;;;4995219;28;20583;-60
2023/12/02 13:26:33;;;;;;;14.45;7.50;;;;;;;;;;5001390;28;20064;-53
2023/12/02 13:29:27;;;;;;;14.63;7.20;;;;;;;;;;4996445;28;20744;-55
2023/12/02 13:32:14;;;;;;;14.77;7.05;;;;;;;;;;4998523;28;20054;-57
2023/12/02 13:35:11;;;;;;;16.00;7.43;;;;;;;;;;4983766;28;20054;-54
2023/12/02 13:38:04;;;;;;;13.90;6.97;;;;;;;;;;4988953;28;20061;-54
2023/12/02 13:41:19;;;;;;;14.75;7.50;;;;;;;;;;4983864;28;20560;-57
2023/12/02 13:44:13;;;;;;;16.15;7.15;;;;;;;;;;4993266;28;20065;-61
2023/12/02 13:47:18;;;;;;;16.55;7.45;;;;;;;;;;4991668;28;20069;-61
2023/12/02 13:50:13;;;;;;;13.43;6.55;;;;;;;;;;4989890;28;20050;-61
2023/12/02 13:53:09;;;;;;;10.98;5.65;;;;;;;;;;4993115;28;20061;-61
2023/12/02 13:56:06;;;;;;;11.75;6.05;;;;;;;;;;4985353;28;20054;-60
2023/12/02 13:59:32;;;;;;;11.38;6.47;;;;;;;;;;4957509;28;20055;-60
2023/12/02 14:02:27;;;;;;;13.82;6.60;;;;;;;;;;4928911;28;20074;-68
2023/12/02 14:05:26;;;;;;;12.73;6.20;;;;;;;;;;4934929;28;20594;-61
2023/12/02 14:08:16;;;;;;;12.00;6.18;;;;;;;;;;4979705;28;20488;-61
2023/12/02 14:11:15;;;;;;;12.93;7.07;;;;;;;;;;4973040;28;20062;-61
2023/12/02 14:14:14;;;;;;;13.82;6.40;;;;;;;;;;4975412;28;20055;-61
2023/12/02 14:17:11;;;;;;;14.05;7.32;;;;;;;;;;4975367;28;20933;-61
2023/12/02 14:20:05;;;;;;;12.93;7.05;;;;;;;;;;4990086;28;20054;-48
2023/12/02 14:23:04;;;;;;;14.88;6.57;;;;;;;;;;4989880;28;20065;-54
2023/12/02 14:25:54;;;;;;;13.25;7.07;;;;;;;;;;4997216;28;20062;-53
2023/12/02 14:29:07;;;;;;;16.33;7.47;;;;;;;;;;4998640;28;20057;-58
2023/12/02 14:32:07;;;;;;;12.75;6.95;;;;;;;;;;4986970;28;20065;-56
2023/12/02 14:35:20;;;;;;;14.25;7.28;;;;;;;;;;4992806;28;20054;-55
2023/12/02 14:38:25;;;;;;;17.23;7.72;;;;;;;;;;4994512;28;20053;-68
2023/12/02 14:41:25;;;;;;;12.27;6.88;;;;;;;;;;4990829;28;20137;-68
2023/12/02 14:44:12;;;;;;;17.58;7.53;;;;;;;;;;4992074;28;20061;-68
2023/12/02 14:47:07;;;;;;;15.85;7.90;;;;;;;;;;4993830;28;20058;-61
2023/12/02 14:49:54;;;;;;;13.82;6.95;;;;;;;;;;4991496;28;20120;-56
2023/12/02 14:52:49;;;;;;;13.98;6.97;;;;;;;;;;4997412;28;20050;-59
2023/12/02 14:55:43;;;;;;;14.73;7.88;;;;;;;;;;4991867;28;20120;-59
2023/12/02 14:58:35;;;;;;;12.23;7.05;;;;;;;;;;4990838;28;20100;-58
2023/12/02 15:01:39;;;;;;;13.95;7.50;;;;;;;;;;4997129;28;20112;-57
2023/12/02 15:04:25;;;;;;;16.98;8.10;;;;;;;;;;4997889;28;20060;-58
2023/12/02 15:07:19;;;;;;;17.17;7.28;;;;;;;;;;4997886;28;20049;-58
2023/12/02 15:10:09;;;;;;;15.02;8.60;;;;;;;;;;4992352;28;20069;-58
2023/12/02 15:13:10;;;;;;;14.30;7.75;;;;;;;;;;4993898;28;20110;-58
2023/12/02 15:15:58;;;;;;;19.42;9.02;;;;;;;;;;4992112;28;20057;-68
2023/12/02 15:18:59;;;;;;;13.35;7.70;;;;;;;;;;4993956;28;20077;-69
2023/12/02 15:22:06;;;;;;;16.13;7.93;;;;;;;;;;4993695;28;20054;-68
2023/12/02 15:24:54;;;;;;;14.05;7.25;;;;;;;;;;5000115;28;20621;-68
2023/12/02 15:27:46;;;;;;;15.40;7.80;;;;;;;;;;5000186;28;20053;-68
2023/12/02 15:30:33;;;;;;;13.50;7.30;;;;;;;;;;4998578;28;20078;-68
2023/12/02 15:33:39;;;;;;;16.60;7.45;;;;;;;;;;4999846;28;20617;-49
2023/12/02 15:36:27;;;;;;;13.88;7.82;;;;;;;;;;4998657;28;20072;-47
2023/12/02 15:39:22;;;;;;;13.93;7.03;;;;;;;;;;4994534;28;20081;-50
2023/12/02 15:42:10;;;;;;;;;;;;;;;;;;4999867;28;20072;-47
2023/12/02 15:45:03;;;;;;;11.98;6.85;;;;;;;;;;4997610;28;20027;-61
2023/12/02 15:47:51;;;;;;;14.63;7.63;;;;;;;;;;4996570;28;20653;-61
2023/12/02 15:50:44;;;;;;;15.80;7.47;;;;;;;;;;4999701;28;20057;-60
2023/12/02 15:53:38;;;;;;;14.57;7.32;;;;;;;;;;5000912;28;20457;-61
2023/12/02 15:56:28;;;;;;;13.52;7.93;;;;;;;;;;4995635;28;20050;-61
2023/12/02 15:59:20;;;;;;;14.73;7.38;;;;;;;;;;4996671;28;20050;-60
2023/12/02 16:02:08;;;;;;;15.23;6.88;;;;;;;;;;4999228;28;20069;-68
2023/12/02 16:05:02;;;;;;;13.88;6.78;;;;;;;;;;4998322;28;20054;-68
2023/12/02 16:07:57;;;;;;;15.60;8.07;;;;;;;;;;5000046;28;20500;-69
2023/12/02 16:11:02;;;;;;;14.65;6.95;;;;;;;;;;4996967;28;20046;-68